sensor_id;sensor_type;location;lat;lon;timestamp;pressure;altitude;pressure_sealevel;temperature;humidity
8292;BME280;4184;42.724;23.308;2022-09-24T00:00:53;95766.75;;;9.86;58.25
8292;BME280;4184;42.724;23.308;2022-09-24T00:03:21;95776.13;;;9.87;58.82
8292;BME280;4184;42.724;23.308;2022-09-24T00:05:51;95771.22;;;9.84;59.24
8292;BME280;4184;42.724;23.308;2022-09-24T00:08:19;95776.63;;;9.81;59.04
8292;BME280;4184;42.724;23.308;2022-09-24T00:10:47;95769.81;;;9.80;59.32
8292;BME280;4184;42.724;23.308;2022-09-24T00:13:16;95764.91;;;9.77;58.75
8292;BME280;4184;42.724;23.308;2022-09-24T00:15:47;95766.78;;;9.75;59.40
8292;BME280;4184;42.724;23.308;2022-09-24T00:18:18;95765.38;;;9.71;59.02
8292;BME280;4184;42.724;23.308;2022-09-24T00:20:46;95763.97;;;9.67;58.60
8292;BME280;4184;42.724;23.308;2022-09-24T00:23:14;95764.91;;;9.55;59.74
8292;BME280;4184;42.724;23.308;2022-09-24T00:25:42;95760.00;;;9.52;59.62
8292;BME280;4184;42.724;23.308;2022-09-24T00:28:27;95757.19;;;9.44;60.45
8292;BME280;4184;42.724;23.308;2022-09-24T00:30:57;95760.09;;;9.39;60.19
8292;BME280;4184;42.724;23.308;2022-09-24T00:33:26;95759.53;;;9.35;60.40
8292;BME280;4184;42.724;23.308;2022-09-24T00:35:58;95759.53;;;9.35;60.36
8292;BME280;4184;42.724;23.308;2022-09-24T00:38:27;95762.59;;;9.41;60.63
8292;BME280;4184;42.724;23.308;2022-09-24T00:40:55;95753.91;;;9.42;60.30
8292;BME280;4184;42.724;23.308;2022-09-24T00:43:27;95750.03;;;9.47;59.81
8292;BME280;4184;42.724;23.308;2022-09-24T00:45:57;95755.06;;;9.49;60.28
8292;BME280;4184;42.724;23.308;2022-09-24T00:48:28;95752.50;;;9.49;60.68
8292;BME280;4184;42.724;23.308;2022-09-24T00:50:59;95754.50;;;9.45;60.65
8292;BME280;4184;42.724;23.308;2022-09-24T00:53:28;95752.84;;;9.44;60.35
8292;BME280;4184;42.724;23.308;2022-09-24T00:55:59;95747.81;;;9.43;60.09
8292;BME280;4184;42.724;23.308;2022-09-24T00:58:29;95752.97;;;9.43;61.12
8292;BME280;4184;42.724;23.308;2022-09-24T01:01:00;95747.94;;;9.41;60.65
8292;BME280;4184;42.724;23.308;2022-09-24T01:03:33;95745.44;;;9.40;60.93
8292;BME280;4184;42.724;23.308;2022-09-24T01:06:06;95746.38;;;9.39;60.66
8292;BME280;4184;42.724;23.308;2022-09-24T01:08:34;95747.44;;;9.36;61.06
8292;BME280;4184;42.724;23.308;2022-09-24T01:11:10;95740.66;;;9.35;60.67
8292;BME280;4184;42.724;23.308;2022-09-24T01:13:57;95748.63;;;9.32;61.02
8292;BME280;4184;42.724;23.308;2022-09-24T01:16:35;95742.53;;;9.33;61.07
8292;BME280;4184;42.724;23.308;2022-09-24T01:19:24;95745.34;;;9.30;60.98
8292;BME280;4184;42.724;23.308;2022-09-24T01:22:02;95745.34;;;9.30;60.29
8292;BME280;4184;42.724;23.308;2022-09-24T01:24:49;95749.09;;;9.26;60.40
8292;BME280;4184;42.724;23.308;2022-09-24T01:27:22;95740.06;;;9.20;61.25
8292;BME280;4184;42.724;23.308;2022-09-24T01:30:02;95736.06;;;9.16;60.52
8292;BME280;4184;42.724;23.308;2022-09-24T01:32:34;95743.81;;;9.16;60.92
8292;BME280;4184;42.724;23.308;2022-09-24T01:35:08;95747.56;;;9.12;60.80
8292;BME280;4184;42.724;23.308;2022-09-24T01:37:40;95741.94;;;9.07;60.97
8292;BME280;4184;42.724;23.308;2022-09-24T01:40:11;95745.53;;;9.04;61.85
8292;BME280;4184;42.724;23.308;2022-09-24T01:42:41;95750.69;;;9.04;60.94
8292;BME280;4184;42.724;23.308;2022-09-24T01:45:11;95745.78;;;9.01;61.36
8292;BME280;4184;42.724;23.308;2022-09-24T01:47:41;95745.91;;;9.00;61.17
8292;BME280;4184;42.724;23.308;2022-09-24T01:50:13;95750.25;;;8.99;60.63
8292;BME280;4184;42.724;23.308;2022-09-24T01:52:45;95750.34;;;8.98;61.14
8292;BME280;4184;42.724;23.308;2022-09-24T01:55:18;95748.72;;;8.97;61.64
8292;BME280;4184;42.724;23.308;2022-09-24T01:57:49;95753.06;;;8.96;61.53
8292;BME280;4184;42.724;23.308;2022-09-24T02:00:21;95750.47;;;8.96;61.57
8292;BME280;4184;42.724;23.308;2022-09-24T02:02:53;95759.03;;;8.97;60.91
8292;BME280;4184;42.724;23.308;2022-09-24T02:05:28;95764.31;;;8.95;61.44
8292;BME280;4184;42.724;23.308;2022-09-24T02:08:03;95772.97;;;8.94;61.07
8292;BME280;4184;42.724;23.308;2022-09-24T02:10:35;95777.44;;;8.92;60.72
8292;BME280;4184;42.724;23.308;2022-09-24T02:13:08;95772.28;;;8.92;61.48
8292;BME280;4184;42.724;23.308;2022-09-24T02:15:43;95774.03;;;8.92;61.29
8292;BME280;4184;42.724;23.308;2022-09-24T02:18:15;95764.84;;;8.88;60.76
8292;BME280;4184;42.724;23.308;2022-09-24T02:20:43;95771.66;;;8.89;61.21
8292;BME280;4184;42.724;23.308;2022-09-24T02:23:14;95775.41;;;8.85;61.02
8292;BME280;4184;42.724;23.308;2022-09-24T02:25:46;95782.66;;;8.80;61.65
8292;BME280;4184;42.724;23.308;2022-09-24T02:28:16;95788.28;;;8.73;61.48
8292;BME280;4184;42.724;23.308;2022-09-24T02:30:49;95790.59;;;8.65;61.78
8292;BME280;4184;42.724;23.308;2022-09-24T02:33:19;95794.09;;;8.64;61.49
8292;BME280;4184;42.724;23.308;2022-09-24T02:36:07;95795.13;;;8.62;61.87
8292;BME280;4184;42.724;23.308;2022-09-24T02:38:36;95797.84;;;8.60;62.49
8292;BME280;4184;42.724;23.308;2022-09-24T02:41:04;95805.44;;;8.62;62.58
8292;BME280;4184;42.724;23.308;2022-09-24T02:43:33;95805.34;;;8.63;61.93
8292;BME280;4184;42.724;23.308;2022-09-24T02:46:03;95801.72;;;8.66;62.06
8292;BME280;4184;42.724;23.308;2022-09-24T02:48:30;95798.31;;;8.65;61.57
8292;BME280;4184;42.724;23.308;2022-09-24T02:50:58;95801.13;;;8.62;62.29
8292;BME280;4184;42.724;23.308;2022-09-24T02:53:26;95808.25;;;8.59;62.48
8292;BME280;4184;42.724;23.308;2022-09-24T02:55:53;95810.22;;;8.55;61.92
8292;BME280;4184;42.724;23.308;2022-09-24T02:58:21;95817.22;;;8.53;62.60
8292;BME280;4184;42.724;23.308;2022-09-24T03:00:49;95820.16;;;8.49;62.79
8292;BME280;4184;42.724;23.308;2022-09-24T03:03:17;95825.63;;;8.44;62.93
8292;BME280;4184;42.724;23.308;2022-09-24T03:05:45;95823.28;;;8.41;62.94
8292;BME280;4184;42.724;23.308;2022-09-24T03:08:13;95821.63;;;8.40;62.13
8292;BME280;4184;42.724;23.308;2022-09-24T03:10:40;95818.13;;;8.41;62.54
8292;BME280;4184;42.724;23.308;2022-09-24T03:13:07;95818.94;;;8.41;62.10
8292;BME280;4184;42.724;23.308;2022-09-24T03:15:36;95818.13;;;8.41;62.46
8292;BME280;4184;42.724;23.308;2022-09-24T03:18:03;95818.13;;;8.41;62.51
8292;BME280;4184;42.724;23.308;2022-09-24T03:20:32;95823.47;;;8.38;62.13
8292;BME280;4184;42.724;23.308;2022-09-24T03:23:00;95821.84;;;8.37;62.23
8292;BME280;4184;42.724;23.308;2022-09-24T03:25:28;95824.41;;;8.37;62.20
8292;BME280;4184;42.724;23.308;2022-09-24T03:27:56;95817.72;;;8.34;62.87
8292;BME280;4184;42.724;23.308;2022-09-24T03:30:23;95824.72;;;8.32;63.01
8292;BME280;4184;42.724;23.308;2022-09-24T03:33:08;95826.00;;;8.27;62.14
8292;BME280;4184;42.724;23.308;2022-09-24T03:35:37;95829.19;;;8.18;63.08
8292;BME280;4184;42.724;23.308;2022-09-24T03:38:05;95832.00;;;8.14;62.77
8292;BME280;4184;42.724;23.308;2022-09-24T03:40:32;95828.72;;;8.12;62.79
8292;BME280;4184;42.724;23.308;2022-09-24T03:43:00;95832.22;;;8.11;63.05
8292;BME280;4184;42.724;23.308;2022-09-24T03:45:27;95828.00;;;8.10;63.24
8292;BME280;4184;42.724;23.308;2022-09-24T03:47:55;95826.13;;;8.12;62.58
8292;BME280;4184;42.724;23.308;2022-09-24T03:50:22;95828.72;;;8.12;62.51
8292;BME280;4184;42.724;23.308;2022-09-24T03:52:51;95822.84;;;8.10;62.86
8292;BME280;4184;42.724;23.308;2022-09-24T03:55:19;95828.94;;;8.09;62.76
8292;BME280;4184;42.724;23.308;2022-09-24T03:57:46;95832.44;;;8.08;63.12
8292;BME280;4184;42.724;23.308;2022-09-24T04:00:14;95834.06;;;8.09;62.42
8292;BME280;4184;42.724;23.308;2022-09-24T04:02:42;95834.06;;;8.09;63.09
8292;BME280;4184;42.724;23.308;2022-09-24T04:05:10;95841.09;;;8.07;62.49
8292;BME280;4184;42.724;23.308;2022-09-24T04:07:37;95839.44;;;8.06;62.72
8292;BME280;4184;42.724;23.308;2022-09-24T04:10:07;95841.09;;;8.07;62.52
8292;BME280;4184;42.724;23.308;2022-09-24T04:12:35;95843.66;;;8.07;62.14
8292;BME280;4184;42.724;23.308;2022-09-24T04:15:04;95844.59;;;8.06;62.93
8292;BME280;4184;42.724;23.308;2022-09-24T04:17:31;95835.94;;;8.07;62.78
8292;BME280;4184;42.724;23.308;2022-09-24T04:19:59;95838.50;;;8.07;62.58
8292;BME280;4184;42.724;23.308;2022-09-24T04:22:27;95842.72;;;8.08;62.64
8292;BME280;4184;42.724;23.308;2022-09-24T04:24:54;95848.06;;;8.05;62.91
8292;BME280;4184;42.724;23.308;2022-09-24T04:27:24;95852.41;;;8.05;62.59
8292;BME280;4184;42.724;23.308;2022-09-24T04:29:51;95848.28;;;8.02;62.72
8292;BME280;4184;42.724;23.308;2022-09-24T04:32:19;95850.16;;;8.00;62.39
8292;BME280;4184;42.724;23.308;2022-09-24T04:34:47;95853.66;;;7.99;62.51
8292;BME280;4184;42.724;23.308;2022-09-24T04:37:15;95857.38;;;7.95;62.12
8292;BME280;4184;42.724;23.308;2022-09-24T04:39:42;95854.09;;;7.93;62.37
8292;BME280;4184;42.724;23.308;2022-09-24T04:42:14;95865.69;;;8.11;62.51
8292;BME280;4184;42.724;23.308;2022-09-24T04:44:43;95863.38;;;8.56;61.57
8292;BME280;4184;42.724;23.308;2022-09-24T04:47:13;95857.50;;;9.13;60.14
8292;BME280;4184;42.724;23.308;2022-09-24T04:49:41;95855.25;;;9.66;59.17
8292;BME280;4184;42.724;23.308;2022-09-24T04:52:11;95851.91;;;10.20;58.47
8292;BME280;4184;42.724;23.308;2022-09-24T04:54:40;95860.97;;;10.69;56.92
8292;BME280;4184;42.724;23.308;2022-09-24T04:57:12;95856.06;;;11.19;56.25
8292;BME280;4184;42.724;23.308;2022-09-24T04:59:40;95849.25;;;11.59;55.01
8292;BME280;4184;42.724;23.308;2022-09-24T05:02:09;95850.66;;;11.94;54.15
8292;BME280;4184;42.724;23.308;2022-09-24T05:04:36;95852.91;;;12.18;53.73
8292;BME280;4184;42.724;23.308;2022-09-24T05:07:05;95857.22;;;12.08;53.50
8292;BME280;4184;42.724;23.308;2022-09-24T05:09:32;95855.91;;;11.83;53.82
8292;BME280;4184;42.724;23.308;2022-09-24T05:12:00;95850.41;;;11.55;54.12
8292;BME280;4184;42.724;23.308;2022-09-24T05:14:28;95850.50;;;11.23;54.91
8292;BME280;4184;42.724;23.308;2022-09-24T05:16:55;95851.97;;;10.95;55.02
8292;BME280;4184;42.724;23.308;2022-09-24T05:19:25;95857.69;;;10.67;56.04
8292;BME280;4184;42.724;23.308;2022-09-24T05:21:52;95855.91;;;10.46;56.37
8292;BME280;4184;42.724;23.308;2022-09-24T05:24:20;95864.16;;;10.29;56.75
8292;BME280;4184;42.724;23.308;2022-09-24T05:26:47;95861.78;;;10.15;56.82
8292;BME280;4184;42.724;23.308;2022-09-24T05:29:32;95866.97;;;10.04;57.83
8292;BME280;4184;42.724;23.308;2022-09-24T05:32:03;95865.44;;;9.90;57.78
8292;BME280;4184;42.724;23.308;2022-09-24T05:34:32;95868.16;;;9.77;57.58
8292;BME280;4184;42.724;23.308;2022-09-24T05:37:00;95872.38;;;9.67;58.26
8292;BME280;4184;42.724;23.308;2022-09-24T05:39:28;95876.13;;;9.63;58.27
8292;BME280;4184;42.724;23.308;2022-09-24T05:41:55;95880.00;;;9.57;58.51
8292;BME280;4184;42.724;23.308;2022-09-24T05:44:23;95879.63;;;9.51;58.29
8292;BME280;4184;42.724;23.308;2022-09-24T05:46:51;95880.69;;;9.48;57.90
8292;BME280;4184;42.724;23.308;2022-09-24T05:49:19;95894.63;;;9.46;57.95
8292;BME280;4184;42.724;23.308;2022-09-24T05:51:51;95888.66;;;9.45;58.32
8292;BME280;4184;42.724;23.308;2022-09-24T05:54:21;95886.06;;;9.45;57.81
8292;BME280;4184;42.724;23.308;2022-09-24T05:56:49;95887.13;;;9.43;58.45
8292;BME280;4184;42.724;23.308;2022-09-24T05:59:17;95887.25;;;9.41;58.51
8292;BME280;4184;42.724;23.308;2022-09-24T06:01:44;95890.66;;;9.42;58.63
8292;BME280;4184;42.724;23.308;2022-09-24T06:04:12;95892.16;;;9.44;58.77
8292;BME280;4184;42.724;23.308;2022-09-24T06:06:39;95894.63;;;9.46;58.05
8292;BME280;4184;42.724;23.308;2022-09-24T06:09:10;95896.16;;;9.48;59.18
8292;BME280;4184;42.724;23.308;2022-09-24T06:11:37;95892.53;;;9.51;59.08
8292;BME280;4184;42.724;23.308;2022-09-24T06:14:05;95894.63;;;9.57;58.72
8292;BME280;4184;42.724;23.308;2022-09-24T06:16:33;95896.06;;;9.61;59.72
8292;BME280;4184;42.724;23.308;2022-09-24T06:19:01;95892.56;;;9.62;58.41
8292;BME280;4184;42.724;23.308;2022-09-24T06:21:28;95896.78;;;9.63;59.14
8292;BME280;4184;42.724;23.308;2022-09-24T06:23:56;95900.06;;;9.65;58.68
8292;BME280;4184;42.724;23.308;2022-09-24T06:26:25;95896.19;;;9.71;59.16
8292;BME280;4184;42.724;23.308;2022-09-24T06:28:53;95898.63;;;9.72;58.74
8292;BME280;4184;42.724;23.308;2022-09-24T06:31:21;95902.66;;;9.76;59.05
8292;BME280;4184;42.724;23.308;2022-09-24T06:33:48;95905.00;;;9.79;59.08
8292;BME280;4184;42.724;23.308;2022-09-24T06:36:16;95911.56;;;9.83;58.42
8292;BME280;4184;42.724;23.308;2022-09-24T06:38:43;95907.81;;;9.87;58.57
8292;BME280;4184;42.724;23.308;2022-09-24T06:41:11;95901.13;;;9.85;58.90
8292;BME280;4184;42.724;23.308;2022-09-24T06:43:40;95904.41;;;9.87;59.13
8292;BME280;4184;42.724;23.308;2022-09-24T06:46:08;95905.84;;;9.91;59.41
8292;BME280;4184;42.724;23.308;2022-09-24T06:48:35;95904.78;;;9.93;58.55
8292;BME280;4184;42.724;23.308;2022-09-24T06:51:06;95895.84;;;9.98;59.04
8292;BME280;4184;42.724;23.308;2022-09-24T06:53:34;95898.19;;;10.01;58.85
8292;BME280;4184;42.724;23.308;2022-09-24T06:56:02;95888.31;;;10.06;58.38
8292;BME280;4184;42.724;23.308;2022-09-24T06:58:29;95898.06;;;10.13;58.63
8292;BME280;4184;42.724;23.308;2022-09-24T07:00:59;95897.59;;;10.19;58.90
8292;BME280;4184;42.724;23.308;2022-09-24T07:03:30;95902.88;;;10.18;58.61
8292;BME280;4184;42.724;23.308;2022-09-24T07:06:00;95909.69;;;10.19;58.44
8292;BME280;4184;42.724;23.308;2022-09-24T07:08:28;95902.66;;;10.21;59.10
8292;BME280;4184;42.724;23.308;2022-09-24T07:10:56;95898.94;;;10.25;58.22
8292;BME280;4184;42.724;23.308;2022-09-24T07:13:23;95903.59;;;10.31;58.37
8292;BME280;4184;42.724;23.308;2022-09-24T07:15:51;95903.94;;;10.38;57.92
8292;BME280;4184;42.724;23.308;2022-09-24T07:18:20;95905.13;;;10.45;58.19
8292;BME280;4184;42.724;23.308;2022-09-24T07:20:51;95895.09;;;10.51;57.91
8292;BME280;4184;42.724;23.308;2022-09-24T07:23:19;95895.22;;;10.61;57.73
8292;BME280;4184;42.724;23.308;2022-09-24T07:25:47;95896.94;;;10.72;57.50
8292;BME280;4184;42.724;23.308;2022-09-24T07:28:16;95889.13;;;11.15;57.54
8292;BME280;4184;42.724;23.308;2022-09-24T07:30:43;95892.97;;;12.63;55.24
8292;BME280;4184;42.724;23.308;2022-09-24T07:33:11;95884.38;;;14.34;51.90
8292;BME280;4184;42.724;23.308;2022-09-24T07:35:40;95877.16;;;15.88;48.64
8292;BME280;4184;42.724;23.308;2022-09-24T07:38:10;95874.66;;;17.29;45.82
8292;BME280;4184;42.724;23.308;2022-09-24T07:40:38;95868.22;;;18.52;43.82
8292;BME280;4184;42.724;23.308;2022-09-24T07:43:06;95869.72;;;19.55;41.84
8292;BME280;4184;42.724;23.308;2022-09-24T07:45:37;95866.16;;;20.44;40.64
8292;BME280;4184;42.724;23.308;2022-09-24T07:48:05;95867.03;;;21.23;39.08
8292;BME280;4184;42.724;23.308;2022-09-24T07:50:38;95853.06;;;22.00;37.64
8292;BME280;4184;42.724;23.308;2022-09-24T07:53:09;95855.66;;;22.63;36.69
8292;BME280;4184;42.724;23.308;2022-09-24T07:55:37;95854.78;;;23.17;35.88
8292;BME280;4184;42.724;23.308;2022-09-24T07:58:06;95849.78;;;23.68;35.23
8292;BME280;4184;42.724;23.308;2022-09-24T08:00:35;95852.78;;;24.11;34.33
8292;BME280;4184;42.724;23.308;2022-09-24T08:03:03;95850.63;;;24.59;33.95
8292;BME280;4184;42.724;23.308;2022-09-24T08:05:30;95852.47;;;25.04;33.41
8292;BME280;4184;42.724;23.308;2022-09-24T08:08:00;95848.19;;;25.34;32.63
8292;BME280;4184;42.724;23.308;2022-09-24T08:10:29;95849.41;;;25.70;31.97
8292;BME280;4184;42.724;23.308;2022-09-24T08:13:00;95841.06;;;26.09;31.21
8292;BME280;4184;42.724;23.308;2022-09-24T08:15:28;95837.75;;;26.32;30.69
8292;BME280;4184;42.724;23.308;2022-09-24T08:18:00;95845.78;;;26.62;30.49
8292;BME280;4184;42.724;23.308;2022-09-24T08:20:28;95845.81;;;26.92;29.99
8292;BME280;4184;42.724;23.308;2022-09-24T08:23:00;95858.50;;;27.20;29.75
8292;BME280;4184;42.724;23.308;2022-09-24T08:25:30;95842.19;;;27.47;29.33
8292;BME280;4184;42.724;23.308;2022-09-24T08:28:01;95838.19;;;27.68;28.39
8292;BME280;4184;42.724;23.308;2022-09-24T08:30:28;95835.81;;;27.90;28.25
8292;BME280;4184;42.724;23.308;2022-09-24T08:32:56;95829.66;;;28.12;27.80
8292;BME280;4184;42.724;23.308;2022-09-24T08:35:24;95826.31;;;28.29;27.54
8292;BME280;4184;42.724;23.308;2022-09-24T08:37:53;95830.66;;;28.46;27.39
8292;BME280;4184;42.724;23.308;2022-09-24T08:40:23;95828.91;;;28.52;27.54
8292;BME280;4184;42.724;23.308;2022-09-24T08:42:59;95823.94;;;28.56;28.02
8292;BME280;4184;42.724;23.308;2022-09-24T08:45:29;95823.16;;;28.43;27.59
8292;BME280;4184;42.724;23.308;2022-09-24T08:48:20;95823.16;;;28.43;27.80
8292;BME280;4184;42.724;23.308;2022-09-24T08:50:52;95816.72;;;28.68;27.38
8292;BME280;4184;42.724;23.308;2022-09-24T08:53:26;95823.38;;;28.82;27.63
8292;BME280;4184;42.724;23.308;2022-09-24T08:55:58;95809.25;;;28.93;27.24
8292;BME280;4184;42.724;23.308;2022-09-24T08:58:39;95809.59;;;29.14;26.71
8292;BME280;4184;42.724;23.308;2022-09-24T09:01:18;95811.31;;;29.20;26.36
8292;BME280;4184;42.724;23.308;2022-09-24T09:03:51;95811.41;;;29.25;26.37
8292;BME280;4184;42.724;23.308;2022-09-24T09:06:39;95809.78;;;29.24;26.67
8292;BME280;4184;42.724;23.308;2022-09-24T09:09:11;95804.69;;;29.22;26.31
8292;BME280;4184;42.724;23.308;2022-09-24T09:11:46;95801.22;;;29.22;26.42
8292;BME280;4184;42.724;23.308;2022-09-24T09:14:17;95804.31;;;29.30;25.69
8292;BME280;4184;42.724;23.308;2022-09-24T09:16:50;95802.53;;;29.36;26.13
8292;BME280;4184;42.724;23.308;2022-09-24T09:19:20;95803.50;;;29.30;25.59
8292;BME280;4184;42.724;23.308;2022-09-24T09:21:53;95795.16;;;29.10;25.56
8292;BME280;4184;42.724;23.308;2022-09-24T09:24:29;95795.88;;;29.05;25.90
8292;BME280;4184;42.724;23.308;2022-09-24T09:27:01;95791.09;;;28.90;25.94
8292;BME280;4184;42.724;23.308;2022-09-24T09:29:31;95788.53;;;28.84;26.21
8292;BME280;4184;42.724;23.308;2022-09-24T09:32:07;95777.81;;;28.79;26.20
8292;BME280;4184;42.724;23.308;2022-09-24T09:34:51;95784.09;;;28.72;26.33
8292;BME280;4184;42.724;23.308;2022-09-24T09:37:28;95773.75;;;28.48;26.47
8292;BME280;4184;42.724;23.308;2022-09-24T09:40:21;95776.94;;;28.33;27.24
8292;BME280;4184;42.724;23.308;2022-09-24T09:42:50;95768.34;;;28.42;26.95
8292;BME280;4184;42.724;23.308;2022-09-24T09:45:31;95752.47;;;28.48;26.61
8292;BME280;4184;42.724;23.308;2022-09-24T09:48:00;95755.97;;;28.36;26.87
8292;BME280;4184;42.724;23.308;2022-09-24T09:50:32;95751.19;;;28.10;26.77
8292;BME280;4184;42.724;23.308;2022-09-24T09:53:02;95740.56;;;27.86;27.58
8292;BME280;4184;42.724;23.308;2022-09-24T09:55:34;95737.47;;;27.90;27.36
8292;BME280;4184;42.724;23.308;2022-09-24T09:58:14;95734.81;;;27.90;27.18
8292;BME280;4184;42.724;23.308;2022-09-24T10:00:46;95723.84;;;27.63;27.33
8292;BME280;4184;42.724;23.308;2022-09-24T10:03:25;95724.06;;;27.38;27.50
8292;BME280;4184;42.724;23.308;2022-09-24T10:05:58;95724.81;;;27.03;27.73
8292;BME280;4184;42.724;23.308;2022-09-24T10:08:27;95721.47;;;26.54;28.21
8292;BME280;4184;42.724;23.308;2022-09-24T10:10:55;95715.28;;;25.94;28.87
8292;BME280;4184;42.724;23.308;2022-09-24T10:13:23;95723.06;;;25.27;29.38
8292;BME280;4184;42.724;23.308;2022-09-24T10:15:54;95716.81;;;24.58;30.65
8292;BME280;4184;42.724;23.308;2022-09-24T10:18:28;95711.44;;;23.89;31.30
8292;BME280;4184;42.724;23.308;2022-09-24T10:20:59;95712.78;;;23.20;31.74
8292;BME280;4184;42.724;23.308;2022-09-24T10:23:33;95710.72;;;22.69;32.42
8292;BME280;4184;42.724;23.308;2022-09-24T10:26:03;95707.78;;;22.18;32.89
8292;BME280;4184;42.724;23.308;2022-09-24T10:28:33;95710.38;;;21.70;33.32
8292;BME280;4184;42.724;23.308;2022-09-24T10:31:24;95707.16;;;21.34;33.58
8292;BME280;4184;42.724;23.308;2022-09-24T10:33:55;95695.16;;;21.03;33.68
8292;BME280;4184;42.724;23.308;2022-09-24T10:36:26;95709.31;;;20.81;33.64
8292;BME280;4184;42.724;23.308;2022-09-24T10:39:02;95718.13;;;20.66;34.22
8292;BME280;4184;42.724;23.308;2022-09-24T10:41:31;95713.97;;;20.57;34.43
8292;BME280;4184;42.724;23.308;2022-09-24T10:44:02;95711.66;;;20.48;34.80
8292;BME280;4184;42.724;23.308;2022-09-24T10:46:44;95713.66;;;20.31;34.45
8292;BME280;4184;42.724;23.308;2022-09-24T10:49:23;95720.16;;;20.13;34.64
8292;BME280;4184;42.724;23.308;2022-09-24T10:52:02;95711.78;;;20.03;34.44
8292;BME280;4184;42.724;23.308;2022-09-24T10:54:43;95718.09;;;19.94;34.54
8292;BME280;4184;42.724;23.308;2022-09-24T10:57:23;95709.97;;;19.89;34.79
8292;BME280;4184;42.724;23.308;2022-09-24T11:00:00;95704.28;;;19.86;35.13
8292;BME280;4184;42.724;23.308;2022-09-24T11:03:02;95714.69;;;19.79;34.62
8292;BME280;4184;42.724;23.308;2022-09-24T11:05:38;95712.19;;;19.71;34.69
8292;BME280;4184;42.724;23.308;2022-09-24T11:08:15;95701.44;;;19.66;34.67
8292;BME280;4184;42.724;23.308;2022-09-24T11:11:05;95714.53;;;19.66;34.57
8292;BME280;4184;42.724;23.308;2022-09-24T11:13:42;95706.00;;;19.64;34.68
8292;BME280;4184;42.724;23.308;2022-09-24T11:16:28;95703.13;;;19.59;35.05
8292;BME280;4184;42.724;23.308;2022-09-24T11:19:00;95693.53;;;19.51;35.00
8292;BME280;4184;42.724;23.308;2022-09-24T11:21:37;95696.97;;;19.51;35.06
8292;BME280;4184;42.724;23.308;2022-09-24T11:24:23;95694.53;;;19.50;35.02
8292;BME280;4184;42.724;23.308;2022-09-24T11:27:06;95688.00;;;19.46;34.45
8292;BME280;4184;42.724;23.308;2022-09-24T11:29:53;95673.63;;;19.42;34.38
8292;BME280;4184;42.724;23.308;2022-09-24T11:32:28;95677.69;;;19.44;34.59
8292;BME280;4184;42.724;23.308;2022-09-24T11:38:15;95667.22;;;19.44;34.61
8292;BME280;4184;42.724;23.308;2022-09-24T11:41:07;95660.34;;;19.43;34.59
8292;BME280;4184;42.724;23.308;2022-09-24T11:46:52;95652.47;;;19.43;35.02
8292;BME280;4184;42.724;23.308;2022-09-24T11:49:42;95661.97;;;19.44;35.04
8292;BME280;4184;42.724;23.308;2022-09-24T11:52:19;95659.97;;;19.46;34.99
8292;BME280;4184;42.724;23.308;2022-09-24T11:54:55;95654.38;;;19.49;34.89
8292;BME280;4184;42.724;23.308;2022-09-24T11:57:26;95656.19;;;19.49;35.03
8292;BME280;4184;42.724;23.308;2022-09-24T12:00:01;95648.78;;;19.52;35.09
8292;BME280;4184;42.724;23.308;2022-09-24T12:02:35;95650.06;;;19.57;34.80
8292;BME280;4184;42.724;23.308;2022-09-24T12:05:07;95643.44;;;19.61;35.00
8292;BME280;4184;42.724;23.308;2022-09-24T12:07:44;95645.69;;;19.64;35.08
8292;BME280;4184;42.724;23.308;2022-09-24T12:10:32;95643.06;;;19.64;35.13
8292;BME280;4184;42.724;23.308;2022-09-24T12:13:10;95642.06;;;19.65;34.83
8292;BME280;4184;42.724;23.308;2022-09-24T12:15:45;95642.72;;;19.67;34.77
8292;BME280;4184;42.724;23.308;2022-09-24T12:18:17;95638.09;;;19.69;34.42
8292;BME280;4184;42.724;23.308;2022-09-24T12:20:51;95632.06;;;19.68;34.62
8292;BME280;4184;42.724;23.308;2022-09-24T12:23:22;95637.09;;;19.70;34.58
8292;BME280;4184;42.724;23.308;2022-09-24T12:25:56;95644.78;;;19.71;34.88
8292;BME280;4184;42.724;23.308;2022-09-24T12:28:27;95643.59;;;19.74;34.76
8292;BME280;4184;42.724;23.308;2022-09-24T12:31:21;95634.75;;;19.75;35.22
8292;BME280;4184;42.724;23.308;2022-09-24T12:34:16;95631.13;;;19.76;34.86
8292;BME280;4184;42.724;23.308;2022-09-24T12:36:54;95638.06;;;19.83;34.56
8292;BME280;4184;42.724;23.308;2022-09-24T12:39:27;95629.66;;;19.88;34.45
8292;BME280;4184;42.724;23.308;2022-09-24T12:42:00;95637.38;;;19.96;34.53
8292;BME280;4184;42.724;23.308;2022-09-24T12:44:35;95632.22;;;20.03;34.49
8292;BME280;4184;42.724;23.308;2022-09-24T12:47:10;95631.03;;;20.05;34.57
8292;BME280;4184;42.724;23.308;2022-09-24T12:49:40;95629.41;;;20.04;34.51
8292;BME280;4184;42.724;23.308;2022-09-24T12:52:17;95631.03;;;20.05;34.57
8292;BME280;4184;42.724;23.308;2022-09-24T12:54:45;95626.97;;;20.03;34.50
8292;BME280;4184;42.724;23.308;2022-09-24T12:57:23;95632.59;;;20.00;34.61
8292;BME280;4184;42.724;23.308;2022-09-24T12:59:53;95618.00;;;19.97;34.51
8292;BME280;4184;42.724;23.308;2022-09-24T13:02:23;95613.97;;;19.95;34.22
8292;BME280;4184;42.724;23.308;2022-09-24T13:05:14;95601.66;;;19.95;34.22
8292;BME280;4184;42.724;23.308;2022-09-24T13:07:52;95604.28;;;19.95;34.34
8292;BME280;4184;42.724;23.308;2022-09-24T13:10:25;95606.28;;;19.93;34.52
8292;BME280;4184;42.724;23.308;2022-09-24T13:12:55;95600.22;;;19.93;34.49
8292;BME280;4184;42.724;23.308;2022-09-24T13:15:28;95607.91;;;19.94;34.63
8292;BME280;4184;42.724;23.308;2022-09-24T13:18:01;95607.91;;;19.94;34.62
8292;BME280;4184;42.724;23.308;2022-09-24T13:20:31;95609.53;;;19.95;34.91
8292;BME280;4184;42.724;23.308;2022-09-24T13:23:11;95608.19;;;19.99;34.99
8292;BME280;4184;42.724;23.308;2022-09-24T13:25:40;95606.34;;;20.00;34.81
8292;BME280;4184;42.724;23.308;2022-09-24T13:28:22;95607.19;;;20.00;34.79
8292;BME280;4184;42.724;23.308;2022-09-24T13:30:54;95600.94;;;20.01;34.47
8292;BME280;4184;42.724;23.308;2022-09-24T13:33:27;95591.44;;;20.00;34.50
8292;BME280;4184;42.724;23.308;2022-09-24T13:36:03;95582.56;;;20.01;34.79
8292;BME280;4184;42.724;23.308;2022-09-24T13:38:35;95580.56;;;20.03;34.68
8292;BME280;4184;42.724;23.308;2022-09-24T13:41:15;95580.16;;;20.06;34.42
8292;BME280;4184;42.724;23.308;2022-09-24T13:43:51;95580.41;;;20.11;34.43
8292;BME280;4184;42.724;23.308;2022-09-24T13:46:21;95573.81;;;20.16;34.46